createdAt,value
2022-07-26T00:04:38.346Z,24.74
2022-07-26T00:10:10.063Z,24.89
2022-07-26T00:15:41.744Z,24.9
2022-07-26T00:21:13.561Z,24.91
2022-07-26T00:26:45.198Z,24.98
2022-07-26T00:32:21.334Z,24.93
2022-07-26T00:37:53.042Z,24.82
2022-07-26T00:43:24.817Z,24.88
2022-07-26T00:48:56.552Z,25.08
2022-07-26T00:54:28.224Z,25.21
2022-07-26T00:59:59.967Z,24.23
2022-07-26T01:05:31.717Z,23.55
2022-07-26T01:11:03.430Z,23.32
2022-07-26T01:16:35.130Z,23.19
2022-07-26T01:22:09.953Z,23.18
2022-07-26T01:27:38.583Z,23.42
2022-07-26T01:33:14.711Z,23.45
2022-07-26T01:38:46.380Z,23.36
2022-07-26T01:44:18.142Z,23.24
2022-07-26T01:49:49.849Z,23.16
2022-07-26T01:55:21.610Z,23.09
2022-07-26T02:00:53.343Z,23.25
2022-07-26T02:06:24.971Z,23.34
2022-07-26T02:11:56.769Z,23.31
2022-07-26T02:17:28.420Z,23.24
2022-07-26T02:23:00.174Z,23.02
2022-07-26T02:28:31.942Z,23.17
2022-07-26T02:34:08.636Z,23.03
2022-07-26T02:39:39.714Z,22.97
2022-07-26T02:45:11.495Z,22.93
2022-07-26T02:50:43.147Z,22.92
2022-07-26T02:56:14.879Z,22.87
2022-07-26T03:01:46.631Z,22.88
2022-07-26T03:07:18.375Z,22.89
2022-07-26T03:12:50.060Z,22.88
2022-07-26T03:18:21.810Z,22.78
2022-07-26T03:23:53.496Z,22.75
2022-07-26T03:29:25.341Z,22.55
2022-07-26T03:35:01.331Z,22.41
2022-07-26T03:40:32.996Z,22.38
2022-07-26T03:46:04.849Z,22.38
2022-07-26T03:51:36.443Z,22.29
2022-07-26T03:57:08.231Z,22.2
2022-07-26T04:02:39.958Z,22.13
2022-07-26T04:08:11.665Z,22.08
2022-07-26T04:13:43.361Z,21.86
2022-07-26T04:19:15.309Z,21.9
2022-07-26T04:24:46.876Z,21.93
2022-07-26T04:30:18.531Z,21.75
2022-07-26T04:35:54.663Z,21.7
2022-07-26T04:41:26.387Z,21.8
2022-07-26T04:46:58.135Z,21.78
2022-07-26T04:52:29.760Z,21.84
2022-07-26T04:58:01.538Z,21.75
2022-07-26T05:03:33.242Z,21.87
2022-07-26T05:09:05.001Z,21.94
2022-07-26T05:14:36.745Z,22.06
2022-07-26T05:20:10.137Z,22.0
2022-07-26T05:25:41.911Z,22.1
2022-07-26T05:31:13.710Z,21.91
2022-07-26T05:36:49.715Z,21.96
2022-07-26T05:42:21.419Z,21.84
2022-07-26T05:47:53.244Z,21.71
2022-07-26T05:53:24.928Z,22.11
2022-07-26T05:58:56.622Z,22.32
2022-07-26T06:04:28.650Z,22.17
2022-07-26T06:10:00.088Z,22.17
2022-07-26T06:15:31.789Z,22.56
2022-07-26T06:21:03.545Z,22.24
2022-07-26T06:26:35.259Z,22.5
2022-07-26T06:32:07.082Z,22.59
2022-07-26T06:37:43.125Z,22.68
2022-07-26T06:43:14.810Z,22.89
2022-07-26T06:48:47.515Z,23.18
2022-07-26T06:54:18.424Z,23.26
2022-07-26T06:59:50.064Z,23.62
2022-07-26T07:05:21.972Z,23.46
2022-07-26T07:10:53.594Z,23.74
2022-07-26T07:16:25.276Z,23.82
2022-07-26T07:21:57.002Z,23.9
2022-07-26T07:27:28.744Z,23.96
2022-07-26T07:33:00.419Z,24.29
2022-07-26T07:38:37.347Z,24.32
2022-07-26T07:44:08.446Z,24.42
2022-07-26T07:49:40.021Z,24.35
2022-07-26T07:55:21.938Z,24.51
2022-07-26T08:00:43.458Z,24.75
2022-07-26T08:06:15.156Z,24.86
2022-07-26T08:11:50.542Z,24.71
2022-07-26T08:17:18.620Z,25.01
2022-07-26T08:22:50.352Z,25.19
2022-07-26T08:28:38.019Z,24.97
2022-07-26T08:33:55.429Z,24.88
2022-07-26T08:39:31.908Z,25.16
2022-07-26T08:45:03.614Z,25.3
2022-07-26T08:50:35.334Z,25.43
2022-07-26T08:56:07.720Z,25.57
2022-07-26T09:01:39.028Z,25.31
2022-07-26T09:07:10.642Z,25.93
2022-07-26T09:12:42.472Z,26.13
2022-07-26T09:18:14.167Z,25.69
2022-07-26T09:23:45.832Z,25.74
2022-07-26T09:29:17.582Z,25.86
2022-07-26T09:34:52.878Z,25.91
2022-07-26T09:40:25.487Z,25.82
2022-07-26T09:45:57.138Z,26.35
2022-07-26T09:51:29.153Z,26.29
2022-07-26T09:57:00.635Z,25.92
2022-07-26T10:02:32.547Z,26.23
2022-07-26T10:08:04.142Z,26.13
2022-07-26T10:13:36.335Z,26.16
2022-07-26T10:19:07.777Z,26.61
2022-07-26T10:24:39.494Z,26.33
2022-07-26T10:30:11.221Z,26.46
2022-07-26T10:35:43.065Z,26.72
2022-07-26T10:41:21.081Z,26.85
2022-07-26T10:46:52.842Z,27.09
2022-07-26T10:52:24.588Z,26.87
2022-07-26T10:57:56.293Z,27.24
2022-07-26T11:03:28.045Z,27.55
2022-07-26T11:08:59.910Z,27.71
2022-07-26T11:14:31.630Z,27.67
2022-07-26T11:20:03.468Z,27.97
2022-07-26T11:25:35.201Z,27.76
2022-07-26T11:31:07.061Z,28.09
2022-07-26T11:36:38.762Z,27.88
2022-07-26T11:42:15.022Z,27.75
2022-07-26T11:47:46.685Z,28.33
2022-07-26T11:53:18.425Z,28.18
2022-07-26T11:58:50.065Z,28.48
2022-07-26T12:04:21.941Z,28.51
2022-07-26T12:09:53.569Z,27.85
2022-07-26T12:15:26.117Z,28.24
2022-07-26T12:21:00.622Z,28.58
2022-07-26T12:26:28.884Z,27.56
2022-07-26T12:32:00.680Z,28.06
2022-07-26T12:37:37.786Z,28.57
2022-07-26T12:43:08.499Z,28.21
2022-07-26T12:48:40.211Z,28.67
2022-07-26T12:54:12.490Z,29.06
2022-07-26T12:59:45.065Z,28.46
2022-07-26T13:05:15.641Z,28.01
2022-07-26T13:10:47.258Z,28.18
2022-07-26T13:16:19.025Z,28.35
2022-07-26T13:21:52.911Z,28.84
2022-07-26T13:27:22.485Z,29.12
2022-07-26T13:32:54.136Z,28.07
2022-07-26T13:38:25.953Z,28.89
2022-07-26T13:44:02.075Z,28.71
2022-07-26T13:49:33.801Z,28.76
2022-07-26T13:55:06.683Z,28.86
2022-07-26T14:00:37.108Z,28.63
2022-07-26T14:06:08.901Z,28.02
2022-07-26T14:11:40.584Z,28.61
2022-07-26T14:17:12.326Z,28.55
2022-07-26T14:22:44.092Z,29.08
2022-07-26T14:28:15.797Z,29.47
2022-07-26T14:33:47.506Z,29.09
2022-07-26T14:39:19.290Z,29.31
2022-07-26T14:44:55.401Z,28.95
2022-07-26T14:50:26.994Z,29.12
2022-07-26T14:55:58.778Z,29.55
2022-07-26T15:01:30.519Z,28.85
2022-07-26T15:07:02.250Z,28.88
2022-07-26T15:12:33.932Z,29.26
2022-07-26T15:18:05.651Z,29.01
2022-07-26T15:23:37.375Z,28.84
2022-07-26T15:29:09.128Z,28.92
2022-07-26T15:34:40.907Z,28.78
2022-07-26T15:40:12.610Z,28.74
2022-07-26T15:45:48.774Z,27.55
2022-07-26T15:51:20.482Z,27.44
2022-07-26T15:56:52.105Z,28.12
2022-07-26T16:02:23.889Z,28.43
2022-07-26T16:07:55.612Z,27.79
2022-07-26T16:13:27.245Z,28.1
2022-07-26T16:18:58.937Z,27.83
2022-07-26T16:24:30.802Z,27.76
2022-07-26T16:30:02.443Z,28.1
2022-07-26T16:35:34.214Z,27.73
2022-07-26T16:41:05.890Z,27.98
2022-07-26T16:46:44.116Z,27.78
2022-07-26T16:52:15.686Z,27.66
2022-07-26T16:57:47.475Z,27.36
2022-07-26T17:03:19.214Z,27.3
2022-07-26T17:08:50.979Z,27.31
2022-07-26T17:14:22.657Z,27.71
2022-07-26T17:19:54.334Z,27.2
2022-07-26T17:25:26.087Z,27.04
2022-07-26T17:30:57.810Z,27.13
2022-07-26T17:36:29.530Z,26.9
2022-07-26T17:42:01.232Z,26.98
2022-07-26T17:47:39.374Z,27.11
2022-07-26T17:53:11.035Z,26.84
2022-07-26T17:58:42.955Z,27.05
2022-07-26T18:04:14.855Z,26.8
2022-07-26T18:09:46.439Z,26.59
2022-07-26T18:15:18.174Z,26.45
2022-07-26T18:20:50.025Z,26.68
2022-07-26T18:26:21.578Z,26.7
2022-07-26T18:31:53.331Z,26.8
2022-07-26T18:37:25.019Z,26.67
2022-07-26T18:42:56.712Z,26.48
2022-07-26T18:48:32.793Z,26.3
2022-07-26T18:54:04.540Z,26.15
2022-07-26T18:59:36.410Z,26.0
2022-07-26T19:05:08.134Z,25.89
2022-07-26T19:10:39.856Z,25.75
2022-07-26T19:16:11.621Z,25.59
2022-07-26T19:21:43.283Z,25.48
2022-07-26T19:27:15.037Z,25.38
2022-07-26T19:32:46.710Z,25.31
2022-07-26T19:38:18.461Z,25.26
2022-07-26T19:43:50.147Z,25.09
2022-07-26T19:49:26.329Z,24.92
2022-07-26T19:54:57.986Z,24.8
2022-07-26T20:00:29.669Z,24.69
2022-07-26T20:06:01.423Z,24.59
2022-07-26T20:11:33.162Z,24.49
2022-07-26T20:17:04.955Z,24.35
2022-07-26T20:22:37.036Z,24.21
2022-07-26T20:28:08.356Z,24.24
2022-07-26T20:33:40.094Z,24.09
2022-07-26T20:39:12.063Z,23.98
2022-07-26T20:44:43.650Z,23.96
2022-07-26T20:50:19.665Z,23.99
2022-07-26T20:55:51.427Z,23.84
2022-07-26T21:01:23.248Z,23.72
2022-07-26T21:06:54.966Z,23.54
2022-07-26T21:12:26.552Z,23.45
2022-07-26T21:17:58.411Z,23.47
2022-07-26T21:23:30.023Z,23.41
2022-07-26T21:29:01.987Z,23.39
2022-07-26T21:34:33.492Z,23.37
2022-07-26T21:40:05.224Z,23.26
2022-07-26T21:45:37.237Z,23.25
2022-07-26T21:51:13.076Z,23.16
2022-07-26T21:56:44.837Z,23.13
2022-07-26T22:02:19.284Z,22.98
2022-07-26T22:07:48.276Z,22.81
2022-07-26T22:13:20.007Z,22.73
2022-07-26T22:18:51.948Z,22.6
2022-07-26T22:24:23.621Z,22.46
2022-07-26T22:29:58.095Z,22.4
2022-07-26T22:35:32.416Z,22.25
2022-07-26T22:41:01.490Z,22.13
2022-07-26T22:46:34.079Z,22.15
2022-07-26T22:52:10.088Z,22.08
2022-07-26T22:57:41.830Z,21.97
2022-07-26T23:03:19.453Z,21.85
2022-07-26T23:08:47.276Z,21.81
2022-07-26T23:14:17.057Z,21.84
2022-07-26T23:19:48.706Z,21.69
2022-07-26T23:25:20.572Z,21.82
2022-07-26T23:30:52.229Z,21.81
2022-07-26T23:36:23.893Z,21.71
2022-07-26T23:41:55.607Z,21.78
2022-07-26T23:47:27.319Z,21.74
2022-07-26T23:53:03.531Z,22.0
2022-07-26T23:58:35.128Z,21.64
